Detall de PIREP

Printer-friendly versionPDF version

[2009/10/17 21:29:00]
Flight IATA:CT2107
Pilot Number:041
Company ICAO:CAT
Aircraft Type:AT72/F
PAX:50
Departing Airport: LEMD
Destination Airport: LEVC
Alternate Airport:LEAL
Online: VATSIM
Route:NANDO1X CENTA1D
Flight Level:FL180
No Slew and time accel
No pause
Crash detect
Detect pilot in Cockpit between each 30 and 45 minutes
21:29 Zero fuel Weight: 41181 Lbs, Fuel Weight: 3888 Lbs
21:29 VATSIM:LEMD 172100Z VRB02KT CAVOK 12/M03 Q1017 NOSIG
21:29 VATSIM:LEVC 172100Z VRB05KT 9999 FEW018 SCT025 17/13 Q1017 NOSIG
21:29 VOICE CATALONIAN
21:31 Parking Brakes off
21:38 Take-off
21:38 Take off Weight: 44969 Lbs
21:38 Wind: 069º @ 001 Knots Heading: 140º
21:38 POS N40º 29´ 04´´ W003º 32´ 50´´
21:38 Flaps:1 at 131 Knots
21:38 Gear Up: 129 Knots
21:38 Flaps:0 at 129 Knots
21:53 Wind:330º@011 Knots Heading: 105º Ground Speed: 300 Knots Altitude 17227 ft
21:53 TOC
21:53
Fuel Weight: 3159 Lb
21:54 TOD
21:54 Fuel Weight: 3156 Lb
22:08 Wind:027º@007 Knots Heading: 117º Ground Speed: 240 Knots Altitude 5574 ft
22:13 Flaps:1 at 179 Knots
22:14 Gear Down: 157 Knots
22:14 Flaps:2 at 145 Knots
22:17 TouchDown:Rate -66 ft/min Speed: 98 Knots
22:17 Flaps:1 at 78 Knots
22:17 Flaps:0 at 75 Knots
22:18 Land
22:18 Wind:333º@004 Knots
22:18 Heading: 094º
22:18 Flight Duration: 00:40
22:18 Landing Weight: 44022 Lbs
22:18 POS N39º 29´ 12´´ W000º 28´ 28´´
22:24 Parking brakes on
22:24 Block to Block Duration: 00:53
22:24 Final Fuel: 2813 Lbls
22:24 Spent Fuel: 1075 Lbls
22:24 Flight Length: 155 NM
22:24 TOD Land Length: 86 NM

Exportar CSV

Powered by Drupal - Modified by Danger4k